Los Lunas ASC

2021-03-02 07:35:00

  • imperial
Date Time Air Temperature Relative Humidity Dewpoint Windchill Heat Index Wind Speed Wind Dir. Rain Solar Radiation Soil Temperature
2m 2m 3m 3m 10cm
US/Mountain F % F F F MPH deg in MJ/m^2 F
max avg avg
2021-03-01 07:40:00 25.3 40.9 4.9 25.3 25.3 1.2 1.5 0.7 92.2 44.9 0.00 0.0480000 39.5
2021-03-01 07:45:00 26.2 37.6 3.8 26.2 26.2 1.2 1.9 1.4 69.7 66.3 0.00 0.0780000 39.5
2021-03-01 07:50:00 27.3 33.8 2.4 27.3 27.3 1.9 3.1 1.4 14.8 32.9 0.00 0.2000000 39.4
2021-03-01 07:55:00 29.1 30.6 1.9 29.1 29.1 2.8 4.9 3.2 1.3 14.5 0.00 0.2160000 39.4
2021-03-01 08:00:00 29.8 31.5 3.2 29.8 29.8 2.8 3.8 3.1 57.4 34.5 0.00 0.2330000 39.3
2021-03-01 08:05:00 30.0 31.4 3.3 30.0 30.0 2.6 3.7 2.6 70.0 47.6 0.00 0.2490000 39.3
2021-03-01 08:10:00 30.1 30.4 2.6 26.4 30.1 3.5 3.5 2.8 56.8 35.9 0.00 0.2650000 39.2
2021-03-01 08:15:00 30.9 29.6 2.8 30.9 30.9 2.8 4.0 2.8 60.6 48.2 0.00 0.2810000 39.2
2021-03-01 08:20:00 31.5 29.7 3.3 31.5 31.5 2.4 3.0 2.2 41.1 56.8 0.00 0.2970000 39.1
2021-03-01 08:25:00 31.9 29.0 3.3 31.9 31.9 1.3 4.4 2.3 45.4 55.4 0.00 0.3130000 39.1
2021-03-01 08:30:00 32.4 29.9 4.2 32.4 32.4 2.4 3.7 2.4 62.5 60.9 0.00 0.3300000 39.1
2021-03-01 08:35:00 32.8 30.2 4.8 30.0 32.8 3.1 4.7 3.3 49.6 53.0 0.00 0.3450000 39.1
2021-03-01 08:40:00 33.0 29.8 4.8 33.0 33.0 2.4 5.5 3.7 107.4 40.4 0.00 0.3610000 39.0
2021-03-01 08:45:00 33.7 29.8 5.4 28.7 33.7 5.5 5.8 2.9 69.1 57.7 0.00 0.3760000 39.0
2021-03-01 08:50:00 33.7 29.5 5.1 28.9 33.7 5.1 6.9 4.5 49.7 48.0 0.00 0.3910000 39.0
2021-03-01 08:55:00 34.2 28.4 4.7 34.2 34.2 1.9 5.6 3.8 141.3 57.4 0.00 0.4050000 39.0
2021-03-01 09:00:00 34.7 28.4 5.2 29.8 34.7 5.5 6.2 3.9 45.2 52.9 0.00 0.4190000 39.0
2021-03-01 09:05:00 35.2 28.6 5.8 29.8 35.2 6.3 6.3 3.3 33.7 66.5 0.00 0.4350000 39.0
2021-03-01 09:10:00 35.0 27.8 5.0 31.3 35.0 4.2 6.5 4.2 85.7 51.8 0.00 0.4480000 39.0
2021-03-01 09:15:00 35.8 27.5 5.4 31.4 35.8 5.1 6.3 4.3 36.1 51.5 0.00 0.4630000 39.0
2021-03-01 09:20:00 35.5 28.2 5.8 30.7 35.5 5.6 8.0 5.7 74.2 51.0 0.00 0.4740000 39.1
2021-03-01 09:25:00 36.0 26.5 4.8 36.0 36.0 2.1 6.9 4.9 82.2 56.7 0.00 0.4860000 39.1
2021-03-01 09:30:00 36.2 26.3 4.8 33.9 36.2 3.1 7.8 4.1 9.4 36.2 0.00 0.5000000 39.2
2021-03-01 09:35:00 36.6 27.3 6.0 31.9 36.6 5.6 5.6 3.2 49.5 45.5 0.00 0.5140000 39.2
2021-03-01 09:40:00 37.0 26.2 5.4 33.5 37.0 4.4 8.5 5.6 54.2 34.2 0.00 0.5260000 39.3
2021-03-01 09:45:00 37.4 26.6 6.1 33.3 37.4 5.1 6.0 3.5 76.2 66.2 0.00 0.5390000 39.4
2021-03-01 09:50:00 38.1 26.2 6.3 34.1 38.1 5.1 7.2 3.4 53.0 56.2 0.00 0.5510000 39.6
2021-03-01 09:55:00 38.1 26.0 6.2 33.9 38.1 5.5 6.0 4.0 18.5 48.0 0.00 0.5620000 39.7
2021-03-01 10:00:00 38.3 25.8 6.2 35.2 38.3 4.2 6.3 4.3 11.4 38.0 0.00 0.5730000 39.8
2021-03-01 10:05:00 38.9 28.0 8.6 38.9 38.9 1.7 4.6 2.8 136.8 55.2 0.00 0.5860000 40.0
2021-03-01 10:10:00 40.6 24.6 7.1 38.3 40.6 3.7 6.5 2.6 76.9 94.0 0.00 0.5960000 40.1
2021-03-01 10:15:00 39.8 25.6 7.3 36.1 39.8 5.1 6.0 3.2 344.5 43.4 0.00 0.6050000 40.3
2021-03-01 10:20:00 41.2 23.1 6.3 39.0 41.2 3.7 4.7 2.5 47.0 32.0 0.00 0.6150000 40.5
2021-03-01 10:25:00 40.5 23.8 6.3 37.2 40.5 4.7 6.9 4.2 34.6 47.3 0.00 0.6250000 40.7
2021-03-01 10:30:00 40.3 25.5 7.6 36.2 40.3 5.8 6.3 4.1 55.0 35.2 0.00 0.6320000 40.9
2021-03-01 10:35:00 40.2 25.5 7.6 40.2 40.2 2.6 6.9 4.2 63.4 47.2 0.00 0.6400000 41.1
2021-03-01 10:40:00 41.0 25.2 8.0 41.0 41.0 2.8 5.1 3.2 159.2 73.5 0.00 0.6490000 41.4
2021-03-01 10:45:00 42.7 24.6 8.9 42.7 42.7 1.7 5.3 3.1 95.1 55.3 0.00 0.6580000 41.6
2021-03-01 10:50:00 42.6 24.4 8.7 40.8 42.6 3.5 4.7 3.2 45.1 45.8 0.00 0.6660000 41.8
2021-03-01 10:55:00 43.6 23.3 8.4 43.6 43.6 2.6 6.5 2.4 3.4 85.3 0.00 0.6740000 42.1
2021-03-01 11:00:00 42.8 24.3 8.7 40.8 42.8 3.7 5.3 3.5 47.3 65.6 0.00 0.6800000 42.3
2021-03-01 11:05:00 42.7 24.4 8.7 39.4 42.7 5.3 5.3 3.0 29.9 78.2 0.00 0.6860000 42.6
2021-03-01 11:10:00 43.2 24.6 9.3 43.2 43.2 1.7 5.1 2.8 38.0 223.3 0.00 0.6890000 42.8
2021-03-01 11:15:00 43.6 23.4 8.6 42.0 43.6 3.5 4.6 2.7 46.4 66.0 0.00 0.6970000 43.1
2021-03-01 11:20:00 44.1 23.7 9.3 42.5 44.1 3.5 5.8 3.4 53.6 44.6 0.00 0.7040000 43.3
2021-03-01 11:25:00 44.7 23.9 9.9 41.5 44.7 5.6 6.2 3.7 59.0 58.5 0.00 0.7100000 43.6
2021-03-01 11:30:00 44.4 23.2 9.1 41.3 44.4 5.5 7.6 4.5 18.8 47.6 0.00 0.7140000 43.9
2021-03-01 11:35:00 44.7 23.6 9.7 41.9 44.7 5.1 6.7 3.4 47.7 26.7 0.00 0.7190000 44.1
2021-03-01 11:40:00 44.4 24.0 9.8 44.4 44.4 3.0 7.1 3.8 341.9 28.0 0.00 0.7200000 44.4
2021-03-01 11:45:00 45.4 23.7 10.3 45.4 45.4 2.1 5.6 3.4 46.8 276.3 0.00 0.7270000 44.6
2021-03-01 11:50:00 47.6 21.0 9.5 45.3 47.6 5.1 5.1 2.5 72.5 71.8 0.00 0.7300000 44.9
2021-03-01 11:55:00 47.4 20.9 9.2 47.4 47.4 2.6 5.1 3.2 45.5 48.5 0.00 0.7330000 45.2
2021-03-01 12:00:00 47.1 20.5 8.6 47.1 47.1 2.8 6.0 3.5 112.4 43.1 0.00 0.7340000 45.5
2021-03-01 12:05:00 46.8 21.9 9.8 46.8 46.8 1.2 7.4 4.1 166.1 64.3 0.00 0.7350000 45.7
2021-03-01 12:10:00 47.0 19.1 6.9 46.2 47.0 3.1 5.6 3.2 167.6 113.6 0.00 0.7370000 46.0
2021-03-01 12:15:00 47.2 20.4 8.5 44.3 47.2 6.0 8.0 4.2 25.7 65.3 0.00 0.7380000 46.3
2021-03-01 12:20:00 47.2 19.0 7.0 47.2 47.2 2.4 7.6 3.8 162.8 86.3 0.00 0.7350000 46.6
2021-03-01 12:25:00 47.2 18.9 6.9 44.5 47.2 5.6 8.8 4.2 50.2 84.6 0.00 0.7370000 46.9
2021-03-01 12:30:00 48.5 18.5 7.4 48.5 48.5 2.1 4.6 2.5 116.4 93.9 0.00 0.7340000 47.1
2021-03-01 12:35:00 48.3 18.0 6.7 47.3 48.3 3.5 5.5 2.7 94.6 127.7 0.00 0.7350000 47.4
2021-03-01 12:40:00 47.4 19.2 7.4 46.3 47.4 3.5 6.7 3.7 262.0 239.4 0.00 0.7320000 47.7
2021-03-01 12:45:00 48.8 18.1 7.3 48.8 48.8 1.7 5.8 3.2 172.7 119.0 0.00 0.7300000 47.9
2021-03-01 12:50:00 49.4 17.4 6.8 49.4 49.4 2.6 4.0 2.5 59.1 162.0 0.00 0.7310000 48.2
2021-03-01 12:55:00 48.6 17.4 6.2 48.6 48.6 2.8 5.1 2.8 89.6 58.3 0.00 0.7290000 48.5
2021-03-01 13:00:00 48.8 16.7 5.4 48.8 48.8 1.3 6.9 2.9 211.3 60.9 0.00 0.7230000 48.7
2021-03-01 13:05:00 51.1 17.1 7.9 51.1 51.1 1.5 3.1 2.1 102.6 128.9 0.00 0.7230000 49.0
2021-03-01 13:10:00 50.6 15.7 5.5 50.6 50.6 3.1 3.8 2.6 183.7 143.7 0.00 0.7170000 49.2
2021-03-01 13:15:00 49.3 16.6 5.7 49.3 49.3 2.1 6.0 4.0 229.5 197.6 0.00 0.7110000 49.5
2021-03-01 13:20:00 49.6 16.1 5.4 49.6 49.6 1.2 6.2 3.4 51.8 204.0 0.00 0.7070000 49.7
2021-03-01 13:25:00 49.9 16.0 5.4 49.9 49.9 2.8 4.6 2.7 217.6 3.3 0.00 0.7040000 50.0
2021-03-01 13:30:00 50.5 15.4 5.0 50.5 50.5 1.9 5.5 2.8 342.0 1.2 0.00 0.6990000 50.2
2021-03-01 13:35:00 49.6 16.5 5.9 49.6 49.6 2.8 4.6 3.2 13.9 28.7 0.00 0.6910000 50.5
2021-03-01 13:40:00 49.4 17.1 6.4 48.0 49.4 4.2 9.6 6.1 18.8 45.4 0.00 0.6860000 50.7
2021-03-01 13:45:00 49.2 16.8 5.9 49.2 49.2 2.8 7.1 4.6 72.7 19.8 0.00 0.6760000 51.0
2021-03-01 13:50:00 50.6 17.0 7.4 50.6 50.6 3.1 6.2 4.2 42.4 56.9 0.00 0.6700000 51.2
2021-03-01 13:55:00 50.8 16.2 6.4 50.8 50.8 2.1 5.5 3.3 38.6 62.5 0.00 0.6630000 51.4
2021-03-01 14:00:00 51.0 15.6 5.8 51.0 51.0 3.1 4.2 2.5 58.9 41.0 0.00 0.6550000 51.6
2021-03-01 14:05:00 51.9 15.4 6.2 51.9 51.9 4.0 4.9 2.6 30.0 55.1 0.00 0.6460000 51.9
2021-03-01 14:10:00 50.6 15.9 5.8 50.6 50.6 1.9 4.7 3.6 40.8 30.1 0.00 0.6380000 52.1
2021-03-01 14:15:00 52.3 15.6 6.8 52.3 52.3 2.4 5.1 2.2 75.2 107.0 0.00 0.6330000 52.2
2021-03-01 14:20:00 51.8 15.4 6.2 51.8 51.8 4.6 6.3 3.0 30.6 43.4 0.00 0.6230000 52.4
2021-03-01 14:25:00 51.0 16.4 6.9 51.0 51.0 4.9 6.9 3.8 38.9 75.9 0.00 0.6140000 52.6
2021-03-01 14:30:00 52.4 15.1 6.1 52.4 52.4 1.5 5.6 2.6 196.5 175.4 0.00 0.6010000 52.8
2021-03-01 14:35:00 52.6 15.0 6.2 52.6 52.6 2.2 3.5 2.4 190.3 331.4 0.00 0.5910000 53.0
2021-03-01 14:40:00 52.8 14.9 6.2 52.8 52.8 2.2 4.9 2.8 15.2 113.0 0.00 0.5750000 53.2
2021-03-01 14:45:00 51.9 16.9 8.2 51.9 51.9 6.3 7.1 5.5 35.3 38.8 0.00 0.2370000 53.4
2021-03-01 14:50:00 51.9 15.3 6.1 51.9 51.9 2.2 7.8 4.4 66.1 35.0 0.00 0.5540000 53.6
2021-03-01 14:55:00 51.5 14.8 4.9 51.5 51.5 1.3 6.0 3.3 128.0 29.1 0.00 0.5430000 53.7
2021-03-01 15:00:00 52.3 14.9 5.8 52.3 52.3 3.8 5.5 2.7 236.0 312.2 0.00 0.5310000 53.9
2021-03-01 15:05:00 53.2 14.5 5.9 53.2 53.2 2.1 3.5 1.7 79.5 33.7 0.00 0.5190000 54.0
2021-03-01 15:10:00 53.0 14.4 5.7 53.0 53.0 2.8 5.3 2.8 41.6 61.5 0.00 0.5060000 54.1
2021-03-01 15:15:00 52.7 14.3 5.3 52.7 52.7 3.3 5.6 3.3 167.5 147.9 0.00 0.4940000 54.3
2021-03-01 15:20:00 52.8 15.1 6.4 52.8 52.8 2.1 5.8 3.3 138.6 193.8 0.00 0.4810000 54.4
2021-03-01 15:25:00 54.5 14.3 6.7 54.5 54.5 1.3 3.3 1.9 120.9 127.2 0.00 0.4670000 54.6
2021-03-01 15:30:00 53.2 14.0 5.2 53.2 53.2 3.8 5.5 3.2 38.4 41.6 0.00 0.0370000 54.7
2021-03-01 15:35:00 53.1 14.8 6.3 53.1 53.1 2.8 4.2 2.5 48.6 28.8 0.00 0.0640000 54.8
2021-03-01 15:40:00 53.8 14.3 6.2 53.8 53.8 1.3 3.3 2.0 110.0 77.4 0.00 0.1570000 54.9
2021-03-01 15:45:00 55.0 14.2 6.9 55.0 55.0 1.5 3.5 1.5 93.9 90.3 0.00 0.4080000 55.0
2021-03-01 15:50:00 54.6 13.3 5.2 54.6 54.6 0.8 3.7 2.1 3.0 58.4 0.00 0.3950000 55.1
2021-03-01 15:55:00 55.6 13.4 6.2 55.6 55.6 2.6 2.6 1.6 86.0 92.5 0.00 0.3810000 55.1
2021-03-01 16:00:00 54.8 12.7 4.4 54.8 54.8 1.9 6.2 2.6 197.3 141.7 0.00 0.3660000 55.2
2021-03-01 16:05:00 54.1 13.4 4.9 54.1 54.1 1.7 3.5 2.6 236.0 215.7 0.00 0.3520000 55.3
2021-03-01 16:10:00 53.4 13.0 3.8 53.4 53.4 3.7 3.7 2.8 249.0 184.3 0.00 0.3360000 55.4
2021-03-01 16:15:00 53.3 12.9 3.6 53.3 53.3 1.5 4.0 2.0 223.7 259.7 0.00 0.3200000 55.4
2021-03-01 16:20:00 54.3 13.6 5.3 54.3 54.3 2.4 3.7 1.6 86.4 281.8 0.00 0.3030000 55.5
2021-03-01 16:25:00 53.9 13.1 4.2 53.9 53.9 1.9 2.4 1.6 75.0 79.8 0.00 0.2880000 55.5
2021-03-01 16:30:00 53.5 14.6 6.3 53.5 53.5 2.2 4.6 2.4 53.4 58.3 0.00 0.2720000 55.5
2021-03-01 16:35:00 53.2 14.7 6.2 53.2 53.2 1.3 4.6 2.4 63.7 68.3 0.00 0.2550000 55.6
2021-03-01 16:40:00 52.6 14.1 4.9 52.6 52.6 1.7 3.3 1.9 115.5 98.6 0.00 0.0640000 55.6
2021-03-01 16:45:00 52.6 14.2 5.0 52.6 52.6 0.8 2.8 1.6 230.0 66.2 0.00 0.0700000 55.6
2021-03-01 16:50:00 52.3 15.3 6.3 52.3 52.3 4.0 4.0 2.1 63.3 75.2 0.00 0.0550000 55.6
2021-03-01 16:55:00 51.3 14.2 4.0 51.3 51.3 1.9 4.2 3.0 42.4 55.4 0.00 0.0270000 55.5
2021-03-01 17:00:00 51.1 14.3 3.9 51.1 51.1 0.8 2.1 1.5 20.1 60.1 0.00 0.0250000 55.5
2021-03-01 17:05:00 51.2 14.3 4.0 51.2 51.2 1.3 2.4 1.4 211.4 277.4 0.00 0.0240000 55.5
2021-03-01 17:10:00 50.7 14.1 3.3 50.7 50.7 1.7 3.3 2.3 207.7 191.2 0.00 0.0230000 55.4
2021-03-01 17:15:00 50.5 14.8 4.2 50.5 50.5 3.8 3.8 2.6 221.4 213.2 0.00 0.0210000 55.3
2021-03-01 17:20:00 50.5 14.7 4.0 50.5 50.5 1.7 3.5 2.4 210.9 228.8 0.00 0.0200000 55.3
2021-03-01 17:25:00 50.2 14.7 3.8 50.2 50.2 2.8 2.8 2.0 196.5 192.7 0.00 0.0190000 55.1
2021-03-01 17:30:00 50.0 14.7 3.7 50.0 50.0 1.9 3.3 2.6 202.7 202.8 0.00 0.0170000 55.1
2021-03-01 17:35:00 49.9 15.1 4.1 49.9 49.9 2.2 2.4 1.8 248.5 212.6 0.00 0.0160000 55.0
2021-03-01 17:40:00 49.5 15.1 3.8 49.5 49.5 2.2 3.3 2.7 238.4 243.9 0.00 0.0140000 54.9
2021-03-01 17:45:00 49.0 16.8 5.8 49.0 49.0 0.8 2.2 0.7 173.7 217.9 0.00 0.0120000 54.7
2021-03-01 17:50:00 48.3 16.0 4.1 48.3 48.3 1.3 1.5 1.0 200.4 196.0 0.00 0.0100000 54.6
2021-03-01 17:55:00 47.3 17.5 5.3 47.3 47.3 0.0 1.2 0.2 217.5 211.4 0.00 0.0080000 54.5
2021-03-01 18:00:00 46.5 18.4 5.8 46.5 46.5 0.0 0.0 0.0 217.5 0.0 0.00 0.0050000 54.4
2021-03-01 18:05:00 45.3 19.1 5.5 45.3 45.3 0.0 0.0 0.0 217.5 0.0 0.00 0.0030000 54.2
2021-03-01 18:10:00 44.5 21.0 6.9 44.5 44.5 0.0 0.8 0.0 245.7 245.7 0.00 0.0020000 54.1
2021-03-01 18:15:00 44.2 20.8 6.4 44.2 44.2 0.0 0.0 0.0 266.7 0.0 0.00 0.0010000 54.0
2021-03-01 18:20:00 43.4 20.3 5.3 43.4 43.4 0.0 0.0 0.0 262.2 0.0 0.00 0.0000000 53.8
2021-03-01 18:25:00 42.7 21.5 5.9 42.7 42.7 0.0 0.0 0.0 252.5 0.0 0.00 0.0000000 53.7
2021-03-01 18:30:00 41.9 21.2 4.9 41.9 41.9 0.8 0.8 0.0 238.9 238.9 0.00 0.0000000 53.5
2021-03-01 18:35:00 41.3 21.3 4.6 41.3 41.3 0.8 1.7 1.1 286.2 265.1 0.00 0.0000000 53.4
2021-03-01 18:40:00 40.7 21.5 4.2 40.7 40.7 1.5 1.9 0.6 263.1 271.0 0.00 0.0000000 53.3
2021-03-01 18:45:00 40.7 19.7 2.3 40.7 40.7 0.0 3.3 1.6 209.8 255.7 0.00 0.0000000 53.1
2021-03-01 18:50:00 40.1 20.4 2.6 40.1 40.1 1.2 1.5 0.9 268.8 263.4 0.00 0.0000000 53.0
2021-03-01 18:55:00 39.1 20.6 2.0 39.1 39.1 1.0 1.7 1.1 269.8 271.7 0.00 0.0000000 52.8
2021-03-01 19:00:00 37.9 21.2 1.6 37.9 37.9 1.2 1.5 1.0 277.7 273.5 0.00 0.0000000 52.6
2021-03-01 19:05:00 37.7 21.0 1.2 37.7 37.7 0.8 1.2 0.5 304.8 266.3 0.00 0.0000000 52.5
2021-03-01 19:10:00 37.2 20.4 0.1 37.2 37.2 2.6 2.6 1.1 238.3 247.0 0.00 0.0000000 52.3
2021-03-01 19:15:00 37.0 20.5 0.1 37.0 37.0 1.0 2.4 1.8 269.3 245.4 0.00 0.0000000 52.2
2021-03-01 19:20:00 36.8 20.1 -0.5 36.8 36.8 2.1 3.1 1.5 267.4 259.8 0.00 0.0000000 52.1
2021-03-01 19:25:00 36.9 20.4 -0.1 36.9 36.9 2.1 3.0 1.9 229.7 251.8 0.00 0.0000000 51.9
2021-03-01 19:30:00 36.2 20.6 -0.5 36.2 36.2 2.1 2.8 2.1 250.8 245.8 0.00 0.0000000 51.8
2021-03-01 19:35:00 36.3 20.3 -0.7 36.3 36.3 1.3 2.2 1.9 227.2 240.6 0.00 0.0000000 51.6
2021-03-01 19:40:00 35.9 19.9 -1.5 33.1 35.9 3.5 3.5 1.9 275.4 265.8 0.00 0.0000000 51.5
2021-03-01 19:45:00 36.1 19.6 -1.6 36.1 36.1 2.2 3.5 2.4 281.8 272.7 0.00 0.0000000 51.3
2021-03-01 19:50:00 36.3 20.2 -0.9 36.3 36.3 0.0 2.6 1.2 323.8 279.2 0.00 0.0000000 51.2
2021-03-01 19:55:00 35.1 23.8 1.7 35.1 35.1 0.0 1.5 0.3 89.7 85.8 0.00 0.0000000 51.0
2021-03-01 20:00:00 34.2 22.7 -0.1 34.2 34.2 0.0 0.0 0.0 56.6 0.0 0.00 0.0000000 50.9
2021-03-01 20:05:00 33.9 25.0 1.7 33.9 33.9 1.3 1.5 0.3 183.7 190.1 0.00 0.0000000 50.7
2021-03-01 20:10:00 33.4 25.5 1.8 33.4 33.4 1.7 1.7 1.4 186.0 183.4 0.00 0.0000000 50.6
2021-03-01 20:15:00 33.0 25.4 1.3 33.0 33.0 1.3 1.9 1.5 225.1 214.2 0.00 0.0000000 50.5
2021-03-01 20:20:00 32.9 24.8 0.8 32.9 32.9 0.8 1.5 1.3 226.1 219.7 0.00 0.0000000 50.3
2021-03-01 20:25:00 32.5 26.2 1.5 32.5 32.5 0.0 0.8 0.0 236.1 226.3 0.00 0.0000000 50.2
2021-03-01 20:30:00 31.8 30.4 4.2 31.8 31.8 3.0 3.1 0.7 67.6 60.5 0.00 0.0000000 50.1
2021-03-01 20:35:00 30.6 33.4 5.1 30.6 30.6 0.8 2.6 0.5 31.5 61.1 0.00 0.0000000 49.9
2021-03-01 20:40:00 29.9 33.6 4.6 29.9 29.9 1.5 1.5 0.2 229.1 227.4 0.00 0.0000000 49.8
2021-03-01 20:45:00 30.4 31.5 3.7 30.4 30.4 1.5 1.7 1.2 344.5 261.3 0.00 0.0000000 49.7
2021-03-01 20:50:00 30.4 30.3 2.9 30.4 30.4 1.2 2.2 1.7 340.9 354.1 0.00 0.0000000 49.6
2021-03-01 20:55:00 30.8 31.2 3.8 30.8 30.8 1.9 1.9 1.4 280.7 305.8 0.00 0.0000000 49.4
2021-03-01 21:00:00 29.7 31.6 3.1 29.7 29.7 2.6 3.5 2.5 295.5 271.8 0.00 0.0000000 49.3
2021-03-01 21:05:00 29.5 31.9 3.1 29.5 29.5 0.0 2.2 0.4 236.1 1.0 0.00 0.0000000 49.2
2021-03-01 21:10:00 28.8 34.0 3.9 28.8 28.8 0.0 0.0 0.0 243.3 0.0 0.00 0.0000000 49.0
2021-03-01 21:15:00 28.6 35.1 4.4 28.6 28.6 0.0 0.0 0.0 286.4 0.0 0.00 0.0000000 48.9
2021-03-01 21:20:00 28.6 35.4 4.6 28.6 28.6 1.7 1.9 0.4 241.8 240.7 0.00 0.0000000 48.8
2021-03-01 21:25:00 29.1 35.0 4.8 29.1 29.1 2.1 2.6 2.1 209.7 233.0 0.00 0.0000000 48.7
2021-03-01 21:30:00 28.6 35.4 4.6 28.6 28.6 0.0 1.9 1.3 260.5 212.9 0.00 0.0000000 48.5
2021-03-01 21:35:00 28.6 36.3 5.2 28.6 28.6 0.0 1.2 0.4 246.7 268.6 0.00 0.0000000 48.4
2021-03-01 21:40:00 28.4 36.9 5.3 28.4 28.4 0.0 0.0 0.0 221.2 0.0 0.00 0.0000000 48.3
2021-03-01 21:45:00 28.5 36.7 5.3 28.5 28.5 0.0 0.0 0.0 224.2 0.0 0.00 0.0000000 48.2
2021-03-01 21:50:00 28.3 36.2 4.9 28.3 28.3 1.9 1.9 0.8 238.3 227.5 0.00 0.0000000 48.0
2021-03-01 21:55:00 28.3 36.7 5.1 28.3 28.3 0.0 1.9 0.8 231.7 233.3 0.00 0.0000000 47.9
2021-03-01 22:00:00 27.8 36.9 4.8 27.8 27.8 1.3 1.7 0.9 176.5 184.7 0.00 0.0000000 47.8
2021-03-01 22:05:00 27.7 37.6 5.2 27.7 27.7 0.8 1.2 0.4 217.2 59.4 0.00 0.0000000 47.7
2021-03-01 22:10:00 27.7 37.4 5.0 27.7 27.7 0.0 2.8 1.6 308.8 249.0 0.00 0.0000000 47.6
2021-03-01 22:15:00 27.6 37.6 5.1 27.6 27.6 1.2 1.3 0.1 29.9 15.4 0.00 0.0000000 47.4
2021-03-01 22:20:00 27.0 39.5 5.6 27.0 27.0 0.0 1.7 1.0 78.0 32.9 0.00 0.0000000 47.3
2021-03-01 22:25:00 26.4 39.9 5.3 26.4 26.4 1.2 1.3 0.3 230.3 215.8 0.00 0.0000000 47.2
2021-03-01 22:30:00 26.1 38.4 4.2 26.1 26.1 0.8 1.2 0.3 338.1 254.4 0.00 0.0000000 47.1
2021-03-01 22:35:00 26.0 39.3 4.6 26.0 26.0 0.0 2.2 1.4 28.2 17.1 0.00 0.0000000 47.0
2021-03-01 22:40:00 25.8 38.6 4.0 25.8 25.8 0.0 0.8 0.0 41.7 113.7 0.00 0.0000000 46.9
2021-03-01 22:45:00 25.4 40.8 4.8 25.4 25.4 1.2 1.2 0.2 220.7 225.6 0.00 0.0000000 46.7
2021-03-01 22:50:00 25.6 40.3 4.8 25.6 25.6 0.8 2.4 1.8 214.8 218.8 0.00 0.0000000 46.6
2021-03-01 22:55:00 25.1 40.4 4.4 25.1 25.1 0.8 1.2 0.3 247.0 245.5 0.00 0.0000000 46.5
2021-03-01 23:00:00 25.2 39.4 3.9 25.2 25.2 1.0 1.9 1.4 236.8 233.5 0.00 0.0000000 46.4
2021-03-01 23:05:00 25.2 39.2 3.8 25.2 25.2 1.2 1.5 1.3 218.4 234.5 0.00 0.0000000 46.3
2021-03-01 23:10:00 25.0 39.7 3.9 25.0 25.0 2.1 2.1 1.6 182.3 205.4 0.00 0.0000000 46.2
2021-03-01 23:15:00 24.7 40.9 4.2 24.7 24.7 1.7 2.4 1.6 207.7 176.9 0.00 0.0000000 46.1
2021-03-01 23:20:00 24.8 40.8 4.3 24.8 24.8 0.0 2.4 1.1 274.0 220.1 0.00 0.0000000 46.0
2021-03-01 23:25:00 24.4 40.8 4.0 24.4 24.4 0.0 0.0 0.0 247.2 0.0 0.00 0.0000000 45.9
2021-03-01 23:30:00 24.2 42.8 4.8 24.2 24.2 1.2 1.2 0.2 295.9 328.8 0.00 0.0000000 45.8
2021-03-01 23:35:00 24.0 42.4 4.4 24.0 24.0 1.5 1.7 1.2 18.9 353.9 0.00 0.0000000 45.6
2021-03-01 23:40:00 24.0 42.0 4.2 24.0 24.0 0.0 1.9 0.8 253.7 358.6 0.00 0.0000000 45.6
2021-03-01 23:45:00 23.7 42.5 4.2 23.7 23.7 0.0 1.7 0.7 43.2 43.1 0.00 0.0000000 45.4
2021-03-01 23:50:00 23.4 42.2 3.8 23.4 23.4 0.0 1.3 0.3 257.3 242.8 0.00 0.0000000 45.3
2021-03-01 23:55:00 22.9 42.8 3.6 22.9 22.9 0.0 0.0 0.0 16.4 0.0 0.00 0.0000000 45.2
2021-03-02 00:00:00 22.9 42.7 3.6 22.9 22.9 0.0 1.7 0.4 290.1 343.9 0.00 0.0000000 45.1
2021-03-02 00:05:00 22.8 42.8 3.5 22.8 22.8 1.3 2.2 1.3 265.3 239.2 0.00 0.0000000 45.0
2021-03-02 00:10:00 22.6 42.6 3.2 22.6 22.6 1.0 1.7 0.9 271.1 265.5 0.00 0.0000000 44.9
2021-03-02 00:15:00 22.5 44.2 3.9 22.5 22.5 1.7 1.7 0.4 295.7 276.2 0.00 0.0000000 44.8
2021-03-02 00:20:00 23.0 42.9 3.7 23.0 23.0 0.0 1.9 0.8 84.3 294.2 0.00 0.0000000 44.7
2021-03-02 00:25:00 22.8 43.7 4.0 22.8 22.8 0.0 0.0 0.0 209.0 0.0 0.00 0.0000000 44.6
2021-03-02 00:30:00 22.4 44.5 4.0 22.4 22.4 0.0 0.0 0.0 258.3 0.0 0.00 0.0000000 44.5
2021-03-02 00:35:00 22.2 45.0 4.1 22.2 22.2 0.0 0.0 0.0 166.8 0.0 0.00 0.0000000 44.4
2021-03-02 00:40:00 21.7 46.1 4.1 21.7 21.7 1.0 1.7 0.8 45.3 22.3 0.00 0.0000000 44.3
2021-03-02 00:45:00 21.7 47.5 4.8 21.7 21.7 0.0 1.3 0.4 292.9 342.0 0.00 0.0000000 44.2
2021-03-02 00:50:00 21.2 48.1 4.6 21.2 21.2 0.8 0.8 0.1 17.6 19.1 0.00 0.0000000 44.1
2021-03-02 00:55:00 21.2 47.0 4.1 21.2 21.2 1.2 1.3 1.1 7.2 11.8 0.00 0.0000000 44.1
2021-03-02 01:00:00 21.1 46.8 3.9 21.1 21.1 0.0 1.2 0.5 90.4 32.2 0.00 0.0000000 43.9
2021-03-02 01:05:00 20.7 48.3 4.2 20.7 20.7 0.0 0.0 0.0 278.3 0.0 0.00 0.0000000 43.8
2021-03-02 01:10:00 20.6 48.6 4.3 20.6 20.6 0.0 0.0 0.0 201.6 0.0 0.00 0.0000000 43.8
2021-03-02 01:15:00 20.6 47.7 3.9 20.6 20.6 0.0 1.3 0.4 181.6 206.8 0.00 0.0000000 43.7
2021-03-02 01:20:00 20.5 49.5 4.5 20.5 20.5 2.1 3.1 1.8 186.4 177.9 0.00 0.0000000 43.6
2021-03-02 01:25:00 20.3 49.0 4.2 20.3 20.3 0.8 2.4 1.5 209.3 205.4 0.00 0.0000000 43.5
2021-03-02 01:30:00 20.4 50.0 4.7 20.4 20.4 2.1 2.2 1.5 209.5 205.4 0.00 0.0000000 43.4
2021-03-02 01:35:00 20.2 50.1 4.5 20.2 20.2 0.8 2.2 1.5 279.8 244.9 0.00 0.0000000 43.3
2021-03-02 01:40:00 20.2 48.8 4.0 20.2 20.2 1.3 2.1 1.0 269.2 287.6 0.00 0.0000000 43.2
2021-03-02 01:45:00 19.9 50.3 4.4 19.9 19.9 1.0 1.3 0.7 279.1 318.2 0.00 0.0000000 43.1
2021-03-02 01:50:00 19.9 49.3 4.0 19.9 19.9 0.8 2.6 1.7 260.9 281.8 0.00 0.0000000 43.0
2021-03-02 01:55:00 19.8 50.0 4.1 19.8 19.8 2.1 2.1 1.2 283.3 304.6 0.00 0.0000000 42.9
2021-03-02 02:00:00 19.8 50.1 4.2 19.8 19.8 0.0 2.1 0.4 290.0 266.7 0.00 0.0000000 42.8
2021-03-02 02:05:00 19.1 50.2 3.6 19.1 19.1 0.8 1.9 0.8 78.3 66.3 0.00 0.0000000 42.7
2021-03-02 02:10:00 17.6 52.9 3.3 17.6 17.6 1.7 1.9 1.3 39.6 52.3 0.00 0.0000000 42.6
2021-03-02 02:15:00 17.2 51.9 2.5 17.2 17.2 1.7 2.4 1.8 32.7 30.8 0.00 0.0000000 42.5
2021-03-02 02:20:00 17.2 52.7 2.9 17.2 17.2 0.0 1.7 0.3 249.2 50.3 0.00 0.0000000 42.5
2021-03-02 02:25:00 17.8 53.1 3.6 17.8 17.8 0.0 0.0 0.0 289.6 0.0 0.00 0.0000000 42.4
2021-03-02 02:30:00 17.9 53.1 3.7 17.9 17.9 0.0 0.0 0.0 67.8 0.0 0.00 0.0000000 42.3
2021-03-02 02:35:00 17.8 51.1 2.8 17.8 17.8 0.0 0.0 0.0 115.4 0.0 0.00 0.0000000 42.2
2021-03-02 02:40:00 17.6 53.5 3.6 17.6 17.6 2.8 3.8 1.4 181.8 182.6 0.00 0.0000000 42.1
2021-03-02 02:45:00 17.6 54.2 3.8 17.6 17.6 1.7 2.6 0.8 226.0 195.6 0.00 0.0000000 42.0
2021-03-02 02:50:00 17.9 53.9 4.0 17.9 17.9 0.0 2.1 1.0 301.4 232.5 0.00 0.0000000 41.9
2021-03-02 02:55:00 18.1 54.2 4.3 18.1 18.1 1.0 2.2 1.4 227.0 224.5 0.00 0.0000000 41.8
2021-03-02 03:00:00 18.1 54.6 4.5 18.1 18.1 0.0 0.8 0.0 213.8 227.0 0.00 0.0000000 41.8
2021-03-02 03:05:00 18.1 54.1 4.2 18.1 18.1 1.7 1.9 0.4 284.1 305.5 0.00 0.0000000 41.7
2021-03-02 03:10:00 18.3 54.7 4.7 18.3 18.3 1.7 2.4 1.5 286.5 286.6 0.00 0.0000000 41.6
2021-03-02 03:15:00 17.9 54.5 4.3 17.9 17.9 1.5 3.0 2.0 332.0 302.5 0.00 0.0000000 41.5
2021-03-02 03:20:00 17.8 53.6 3.8 17.8 17.8 1.9 2.4 1.7 217.9 251.9 0.00 0.0000000 41.4
2021-03-02 03:25:00 17.6 54.8 4.1 17.6 17.6 2.6 2.6 1.5 200.8 268.1 0.00 0.0000000 41.3
2021-03-02 03:30:00 17.2 55.4 3.9 17.2 17.2 0.0 2.2 0.4 239.1 251.2 0.00 0.0000000 41.3
2021-03-02 03:35:00 17.5 56.1 4.5 17.5 17.5 1.2 1.2 0.6 76.6 25.4 0.00 0.0000000 41.2
2021-03-02 03:40:00 16.7 55.5 3.5 16.7 16.7 0.0 1.0 0.1 62.0 73.7 0.00 0.0000000 41.1
2021-03-02 03:45:00 16.4 58.4 4.3 16.4 16.4 0.8 2.1 0.9 11.2 351.7 0.00 0.0000000 41.0
2021-03-02 03:50:00 16.3 57.9 4.1 16.3 16.3 0.0 0.8 0.0 62.6 11.2 0.00 0.0000000 40.9
2021-03-02 03:55:00 16.2 58.0 4.0 16.2 16.2 0.0 0.0 0.0 62.8 0.0 0.00 0.0000000 40.8
2021-03-02 04:00:00 16.4 58.2 4.3 16.4 16.4 1.2 1.5 0.3 204.2 203.1 0.00 0.0000000 40.8
2021-03-02 04:05:00 16.2 58.1 4.0 16.2 16.2 0.0 1.3 0.9 208.7 208.9 0.00 0.0000000 40.7
2021-03-02 04:10:00 16.1 58.4 4.1 16.1 16.1 0.0 2.1 0.8 190.9 192.4 0.00 0.0000000 40.6
2021-03-02 04:15:00 16.1 59.0 4.2 16.1 16.1 0.0 1.2 0.4 240.0 175.6 0.00 0.0000000 40.5
2021-03-02 04:20:00 16.1 59.6 4.5 16.1 16.1 0.0 1.3 0.5 317.2 281.7 0.00 0.0000000 40.4
2021-03-02 04:25:00 15.9 59.2 4.1 15.9 15.9 1.0 1.0 0.1 191.3 183.1 0.00 0.0000000 40.4
2021-03-02 04:30:00 15.9 58.9 4.0 15.9 15.9 0.0 1.7 1.0 220.2 247.1 0.00 0.0000000 40.3
2021-03-02 04:35:00 15.9 58.5 3.9 15.9 15.9 0.8 1.9 1.3 221.3 228.0 0.00 0.0000000 40.2
2021-03-02 04:40:00 15.9 59.0 4.1 15.9 15.9 0.0 1.5 0.9 323.3 250.2 0.00 0.0000000 40.1
2021-03-02 04:45:00 15.7 58.9 3.9 15.7 15.7 0.0 0.8 0.0 7.4 7.4 0.00 0.0000000 40.0
2021-03-02 04:50:00 16.1 59.2 4.3 16.1 16.1 0.0 2.1 0.6 292.5 206.7 0.00 0.0000000 40.0
2021-03-02 04:55:00 16.3 59.3 4.6 16.3 16.3 0.0 1.2 0.5 317.4 294.0 0.00 0.0000000 39.9
2021-03-02 05:00:00 16.2 58.7 4.3 16.2 16.2 0.0 0.8 0.1 31.3 310.7 0.00 0.0000000 39.8
2021-03-02 05:05:00 15.8 58.7 3.9 15.8 15.8 0.0 0.0 0.0 28.3 0.0 0.00 0.0000000 39.7
2021-03-02 05:10:00 15.6 57.9 3.4 15.6 15.6 0.0 0.0 0.0 70.7 0.0 0.00 0.0000000 39.6
2021-03-02 05:15:00 14.8 59.1 3.1 14.8 14.8 0.0 0.0 0.0 71.5 0.0 0.00 0.0000000 39.6
2021-03-02 05:20:00 14.6 62.0 3.9 14.6 14.6 0.0 0.0 0.0 83.6 0.0 0.00 0.0000000 39.5
2021-03-02 05:25:00 14.2 63.4 4.0 14.2 14.2 0.0 0.0 0.0 2.1 0.0 0.00 0.0000000 39.4
2021-03-02 05:30:00 14.4 63.0 4.1 14.4 14.4 1.0 1.0 0.1 242.4 245.8 0.00 0.0000000 39.4
2021-03-02 05:35:00 14.6 61.8 3.9 14.6 14.6 0.0 2.2 1.4 230.0 220.4 0.00 0.0000000 39.3
2021-03-02 05:40:00 14.5 61.8 3.8 14.5 14.5 0.0 0.0 0.0 229.8 0.0 0.00 0.0000000 39.2
2021-03-02 05:45:00 14.6 62.1 4.0 14.6 14.6 0.0 1.3 0.7 225.3 251.2 0.00 0.0000000 39.1
2021-03-02 05:50:00 14.7 61.2 3.7 14.7 14.7 0.0 1.7 1.2 328.6 249.4 0.00 0.0000000 39.1
2021-03-02 05:55:00 14.7 62.3 4.1 14.7 14.7 0.0 1.5 0.5 249.6 285.9 0.00 0.0000000 39.0
2021-03-02 06:00:00 15.1 62.7 4.7 15.1 15.1 1.7 2.2 1.5 317.0 295.5 0.00 0.0000000 38.9
2021-03-02 06:05:00 15.1 61.7 4.3 15.1 15.1 1.0 2.2 1.2 297.6 309.1 0.00 0.0000000 38.9
2021-03-02 06:10:00 15.3 60.8 4.1 15.3 15.3 0.8 1.3 0.8 267.4 289.5 0.00 0.0000000 38.8
2021-03-02 06:15:00 15.4 61.0 4.3 15.4 15.4 0.0 0.0 0.0 1.1 0.0 0.00 0.0000000 38.7
2021-03-02 06:20:00 15.0 60.3 3.7 15.0 15.0 0.0 0.0 0.0 176.2 0.0 0.00 0.0010000 38.6
2021-03-02 06:25:00 14.0 59.3 2.4 14.0 14.0 0.8 1.5 0.6 52.8 61.2 0.00 0.0010000 38.6
2021-03-02 06:30:00 13.4 61.9 2.7 13.4 13.4 0.0 2.2 1.1 65.5 56.3 0.00 0.0020000 38.5
2021-03-02 06:35:00 13.1 63.1 2.9 13.1 13.1 0.8 0.8 0.1 193.8 200.3 0.00 0.0040000 38.4
2021-03-02 06:40:00 13.6 63.4 3.4 13.6 13.6 0.0 1.2 0.4 211.0 197.9 0.00 0.0050000 38.4
2021-03-02 06:45:00 13.9 62.9 3.6 13.9 13.9 0.0 0.8 0.0 138.0 129.2 0.00 0.0080000 38.3
2021-03-02 06:50:00 13.7 64.3 3.8 13.7 13.7 0.0 0.8 0.0 160.8 140.0 0.00 0.0110000 38.2
2021-03-02 06:55:00 13.7 63.8 3.7 13.7 13.7 0.0 0.8 0.0 217.2 160.8 0.00 0.0130000 38.2
2021-03-02 07:00:00 13.7 64.0 3.8 13.7 13.7 0.0 0.0 0.0 233.0 0.0 0.00 0.0150000 38.1
2021-03-02 07:05:00 14.6 63.6 4.5 14.6 14.6 0.0 0.0 0.0 242.6 0.0 0.00 0.0220000 38.1
2021-03-02 07:10:00 15.2 62.9 4.8 15.2 15.2 0.0 0.8 0.1 231.6 243.3 0.00 0.0630000 38.0
2021-03-02 07:15:00 15.9 61.6 5.1 15.9 15.9 0.0 0.0 0.0 317.7 0.0 0.00 0.0320000 37.9
2021-03-02 07:20:00 17.1 65.5 7.6 17.1 17.1 1.7 1.9 1.2 18.6 34.9 0.00 0.0380000 37.8
2021-03-02 07:25:00 17.7 66.0 8.3 17.7 17.7 1.7 2.1 1.6 13.2 31.1 0.00 0.0240000 37.8
2021-03-02 07:30:00 18.2 65.2 8.5 18.2 18.2 1.9 2.1 1.7 45.6 33.1 0.00 0.0720000 37.7
2021-03-02 07:35:00 18.5 64.0 8.3 18.5 18.5 2.1 2.1 1.3 28.9 31.5 0.00 0.0370000 37.7

Data is courtesy of the NM Climate Center. DO NOT USE IN LEGAL PROCEEDINGS.